createdAt,value
2018-04-14T06:08:01.454Z,1009.45
2018-04-14T06:09:01.507Z,1009.46
2018-04-14T06:10:01.120Z,1009.44
2018-04-14T06:11:01.075Z,1009.44
2018-04-14T06:12:01.054Z,1009.46
2018-04-14T06:13:01.165Z,1009.45
2018-04-14T06:14:01.397Z,1009.45
2018-04-14T06:15:00.991Z,1009.50
2018-04-14T06:16:00.957Z,1009.52
2018-04-14T06:17:00.885Z,1009.56
2018-04-14T06:18:00.862Z,1009.55
2018-04-14T06:19:00.828Z,1009.60
2018-04-14T06:20:01.071Z,1009.62
2018-04-14T06:21:00.640Z,1009.64
2018-04-14T06:22:00.607Z,1009.66
2018-04-14T06:23:00.516Z,1009.71
2018-04-14T06:24:00.477Z,1009.71
2018-04-14T06:25:00.430Z,1009.76
2018-04-14T06:26:00.691Z,1009.72
2018-04-14T06:27:00.349Z,1009.82
2018-04-14T06:28:00.306Z,1009.81
2018-04-14T06:29:00.261Z,1009.85
2018-04-14T06:30:00.222Z,1009.86
2018-04-14T06:31:00.197Z,1009.89
2018-04-14T06:32:00.443Z,1009.88
2018-04-14T06:33:00.093Z,1009.89
2018-04-14T06:34:00.256Z,1009.92
2018-04-14T06:35:00.023Z,1009.91
2018-04-14T06:35:59.976Z,1009.93
2018-04-14T06:36:59.927Z,1010.00
2018-04-14T06:38:00.191Z,1010.00
2018-04-14T06:38:59.842Z,1009.97
2018-04-14T06:39:59.863Z,1009.99
2018-04-14T06:40:59.759Z,1010.03
2018-04-14T06:41:59.720Z,1009.99
2018-04-14T06:42:59.677Z,1010.01
2018-04-14T06:43:59.634Z,1009.99
2018-04-14T06:44:59.893Z,1010.02
2018-04-14T06:45:59.553Z,1009.97
2018-04-14T06:46:59.508Z,1009.97
2018-04-14T06:47:59.469Z,1010.01
2018-04-14T06:48:59.429Z,1010.03
2018-04-14T06:49:59.384Z,1010.07
2018-04-14T06:50:59.345Z,1010.08
2018-04-14T06:51:59.603Z,1010.00
2018-04-14T06:52:59.260Z,1010.06
2018-04-14T06:53:59.230Z,1010.04
2018-04-14T06:54:59.175Z,1010.04
2018-04-14T06:55:59.136Z,1010.06
2018-04-14T06:56:59.094Z,1010.07
2018-04-14T06:57:59.052Z,1010.10
2018-04-14T06:58:59.315Z,1010.10
2018-04-14T06:59:58.983Z,1010.15
2018-04-14T07:00:59.078Z,1010.15
2018-04-14T07:01:58.893Z,1010.16
2018-04-14T07:02:58.847Z,1010.16
2018-04-14T07:03:58.807Z,1010.20
2018-04-14T07:04:58.764Z,1010.18
2018-04-14T07:05:59.025Z,1010.20
2018-04-14T07:06:58.883Z,1010.18
2018-04-14T07:07:58.648Z,1010.16
